createdAt,value
2023-02-11T00:01:22.272Z,16.70
2023-02-11T00:03:50.038Z,16.90
2023-02-11T00:06:17.938Z,12.33
2023-02-11T00:08:46.003Z,12.30
2023-02-11T00:11:19.186Z,14.10
2023-02-11T00:13:47.458Z,17.67
2023-02-11T00:16:18.354Z,18.70
2023-02-11T00:18:46.732Z,15.83
2023-02-11T00:21:17.083Z,15.70
2023-02-11T00:23:45.945Z,16.17
2023-02-11T00:26:22.903Z,16.83
2023-02-11T00:28:51.933Z,15.80
2023-02-11T00:31:22.058Z,17.87
2023-02-11T00:33:49.831Z,17.73
2023-02-11T00:36:22.463Z,19.20
2023-02-11T00:38:52.068Z,21.25
2023-02-11T00:41:20.368Z,22.63
2023-02-11T00:43:48.484Z,21.23
2023-02-11T00:46:16.463Z,17.17
2023-02-11T00:48:44.292Z,20.03
2023-02-11T00:51:12.150Z,24.90
2023-02-11T00:53:40.595Z,26.07
2023-02-11T00:56:08.316Z,26.43
2023-02-11T00:58:36.848Z,25.07
2023-02-11T01:01:05.678Z,16.77
2023-02-11T01:03:33.825Z,17.67
2023-02-11T01:06:02.214Z,18.43
2023-02-11T01:08:29.921Z,18.27
2023-02-11T01:11:03.572Z,19.53
2023-02-11T01:13:34.001Z,15.87
2023-02-11T01:16:02.015Z,14.53
2023-02-11T01:18:29.634Z,15.33
2023-02-11T01:20:57.265Z,16.03
2023-02-11T01:23:24.861Z,15.90
2023-02-11T01:25:52.869Z,18.00
2023-02-11T01:28:24.833Z,16.87
2023-02-11T01:30:53.815Z,16.95
2023-02-11T01:33:22.663Z,17.23
2023-02-11T01:35:52.236Z,17.90
2023-02-11T01:38:23.431Z,15.57
2023-02-11T01:40:59.430Z,16.07
2023-02-11T01:43:30.736Z,17.77
2023-02-11T01:46:25.018Z,14.90
2023-02-11T01:49:12.871Z,13.27
2023-02-11T01:51:46.455Z,11.60
2023-02-11T01:54:38.597Z,14.77
2023-02-11T01:57:22.187Z,18.10
2023-02-11T02:00:05.231Z,18.50
2023-02-11T02:03:11.594Z,18.77
2023-02-11T02:06:01.967Z,15.27
2023-02-11T02:08:51.495Z,13.90
2023-02-11T02:11:19.335Z,14.23
2023-02-11T02:13:47.279Z,12.27
2023-02-11T02:16:18.833Z,13.50
2023-02-11T02:19:08.689Z,13.57
2023-02-11T02:21:42.307Z,13.03
2023-02-11T02:24:34.637Z,12.97
2023-02-11T02:27:29.556Z,15.30
2023-02-11T02:30:15.799Z,14.93
2023-02-11T02:32:58.217Z,14.00
2023-02-11T02:35:52.409Z,12.98
2023-02-11T02:38:35.647Z,9.80
2023-02-11T02:41:08.177Z,11.23
2023-02-11T02:43:42.830Z,12.02
2023-02-11T02:46:15.250Z,12.63
2023-02-11T02:48:43.790Z,12.48
2023-02-11T02:51:35.771Z,13.43
2023-02-11T02:54:28.333Z,13.97
2023-02-11T02:57:14.734Z,12.27
2023-02-11T02:59:54.300Z,12.30
2023-02-11T03:02:42.414Z,10.97
2023-02-11T03:05:16.159Z,12.60
2023-02-11T03:08:08.522Z,10.53
2023-02-11T03:10:43.337Z,9.90
2023-02-11T03:13:12.879Z,9.80
2023-02-11T03:15:44.709Z,11.27
2023-02-11T03:18:15.893Z,14.20
2023-02-11T03:20:47.591Z,13.70
2023-02-11T03:23:18.728Z,11.13
2023-02-11T03:25:52.942Z,11.73
2023-02-11T03:28:26.953Z,10.87
2023-02-11T03:31:06.945Z,10.97
2023-02-11T03:33:46.003Z,13.07
2023-02-11T03:36:22.942Z,10.77
2023-02-11T03:38:55.991Z,9.43
2023-02-11T03:41:25.302Z,10.27
2023-02-11T03:43:56.989Z,12.80
2023-02-11T03:46:38.039Z,20.30
2023-02-11T03:49:11.185Z,19.10
2023-02-11T03:51:39.453Z,23.00
2023-02-11T03:54:14.244Z,21.50
2023-02-11T03:56:55.896Z,15.60
2023-02-11T03:59:23.560Z,16.17
2023-02-11T04:01:51.463Z,15.57
2023-02-11T04:04:19.477Z,15.20
2023-02-11T04:06:47.107Z,16.57
2023-02-11T04:09:17.477Z,18.17
2023-02-11T04:11:45.097Z,13.17
2023-02-11T04:14:13.008Z,16.53
2023-02-11T04:16:40.620Z,18.50
2023-02-11T04:19:08.236Z,18.27
2023-02-11T04:21:35.808Z,14.90
2023-02-11T04:24:03.633Z,11.70
2023-02-11T04:26:31.223Z,12.13
2023-02-11T04:28:58.808Z,9.57
2023-02-11T04:31:26.603Z,10.13
2023-02-11T04:33:54.493Z,9.60
2023-02-11T04:36:22.127Z,9.43
2023-02-11T04:38:50.335Z,10.40
2023-02-11T04:41:17.963Z,10.03
2023-02-11T04:43:45.649Z,12.33
2023-02-11T04:46:13.624Z,11.53
2023-02-11T04:48:41.261Z,11.57
2023-02-11T04:51:08.836Z,10.67
2023-02-11T04:53:36.422Z,13.00
2023-02-11T04:56:04.278Z,11.63
2023-02-11T04:58:31.999Z,11.33
2023-02-11T05:01:14.969Z,13.13
2023-02-11T05:03:43.210Z,11.00
2023-02-11T05:06:11.119Z,11.20
2023-02-11T05:08:38.803Z,11.83
2023-02-11T05:11:07.684Z,11.87
2023-02-11T05:13:35.304Z,10.90
2023-02-11T05:16:03.056Z,10.20
2023-02-11T05:18:30.607Z,17.17
2023-02-11T05:20:58.299Z,11.90
2023-02-11T05:23:25.855Z,12.67
2023-02-11T05:25:53.695Z,15.67
2023-02-11T05:28:21.334Z,14.73
2023-02-11T05:30:49.070Z,15.87
2023-02-11T05:33:16.670Z,14.83
2023-02-11T05:35:44.315Z,17.70
2023-02-11T05:38:12.038Z,16.50
2023-02-11T05:40:39.665Z,15.00
2023-02-11T05:43:07.460Z,15.40
2023-02-11T05:45:35.207Z,17.33
2023-02-11T05:48:02.849Z,16.27
2023-02-11T05:50:30.482Z,16.97
2023-02-11T05:52:58.527Z,16.33
2023-02-11T05:55:26.581Z,24.40
2023-02-11T05:57:54.244Z,30.30
2023-02-11T06:00:22.062Z,25.73
2023-02-11T06:02:49.748Z,29.00
2023-02-11T06:05:17.500Z,28.37
2023-02-11T06:07:45.453Z,25.17
2023-02-11T06:10:13.477Z,22.77
2023-02-11T06:12:41.066Z,26.63
2023-02-11T06:15:09.067Z,21.80
2023-02-11T06:17:37.481Z,20.43
2023-02-11T06:20:08.704Z,18.53
2023-02-11T06:22:36.372Z,19.77
2023-02-11T06:25:04.429Z,20.00
2023-02-11T06:27:32.289Z,19.87
2023-02-11T06:29:59.918Z,17.97
2023-02-11T06:32:43.895Z,21.33
2023-02-11T06:35:13.861Z,17.60
2023-02-11T06:37:42.247Z,19.57
2023-02-11T06:40:11.614Z,21.47
2023-02-11T06:42:39.683Z,25.17
2023-02-11T06:45:13.092Z,24.00
2023-02-11T06:47:41.547Z,26.13
2023-02-11T06:50:12.878Z,22.63
2023-02-11T06:52:41.625Z,27.17
2023-02-11T06:55:09.407Z,24.70
2023-02-11T06:57:37.092Z,25.27
2023-02-11T07:00:05.925Z,26.17
2023-02-11T07:02:33.662Z,24.90
2023-02-11T07:05:01.378Z,27.10
2023-02-11T07:07:29.125Z,49.50
2023-02-11T07:09:56.758Z,53.47
2023-02-11T07:12:24.370Z,41.10
2023-02-11T07:14:53.052Z,35.23
2023-02-11T07:17:20.668Z,28.47
2023-02-11T07:19:48.254Z,23.83
2023-02-11T07:22:16.110Z,22.27
2023-02-11T07:24:43.736Z,18.90
2023-02-11T07:27:11.425Z,18.33
2023-02-11T07:29:39.072Z,15.80
2023-02-11T07:32:07.190Z,18.23
2023-02-11T07:34:36.094Z,18.23
2023-02-11T07:37:03.837Z,17.23
2023-02-11T07:39:31.423Z,19.47
2023-02-11T07:41:59.910Z,17.83
2023-02-11T07:44:28.029Z,19.97
2023-02-11T07:46:55.650Z,19.23
2023-02-11T07:49:24.347Z,19.17
2023-02-11T07:51:52.004Z,18.03
2023-02-11T07:54:19.852Z,19.80
2023-02-11T07:56:47.646Z,19.37
2023-02-11T07:59:15.352Z,19.23
2023-02-11T08:01:43.067Z,21.87
2023-02-11T08:04:10.789Z,27.53
2023-02-11T08:06:42.490Z,30.07
2023-02-11T08:09:14.827Z,26.93
2023-02-11T08:11:42.726Z,34.10
2023-02-11T08:14:10.538Z,36.97
2023-02-11T08:16:39.445Z,53.10
2023-02-11T08:19:11.771Z,48.53
2023-02-11T08:21:39.857Z,41.42
2023-02-11T08:24:08.352Z,34.37
2023-02-11T08:26:37.640Z,33.00
2023-02-11T08:29:09.490Z,32.43
2023-02-11T08:31:40.344Z,28.55
2023-02-11T08:34:10.058Z,28.33
2023-02-11T08:36:39.264Z,30.23
2023-02-11T08:39:18.724Z,28.37
2023-02-11T08:41:49.829Z,25.47
2023-02-11T08:44:19.711Z,30.73
2023-02-11T08:46:48.422Z,29.73
2023-02-11T08:49:16.568Z,28.10
2023-02-11T08:51:44.737Z,29.40
2023-02-11T08:54:12.491Z,26.23
2023-02-11T08:56:40.354Z,24.37
2023-02-11T08:59:11.768Z,23.27
2023-02-11T09:01:39.568Z,24.67
2023-02-11T09:04:07.424Z,23.80
2023-02-11T09:06:35.151Z,22.98
2023-02-11T09:09:02.855Z,24.33
2023-02-11T09:11:35.767Z,28.73
2023-02-11T09:16:34.210Z,21.23
2023-02-11T09:19:04.303Z,20.75
2023-02-11T09:21:32.201Z,31.53
2023-02-11T09:23:59.800Z,23.17
2023-02-11T09:26:33.001Z,22.30
2023-02-11T09:29:01.770Z,22.60
2023-02-11T09:31:31.071Z,20.27
2023-02-11T09:34:02.022Z,18.70
2023-02-11T09:36:38.988Z,21.63
2023-02-11T09:39:12.120Z,19.33
2023-02-11T09:41:45.929Z,18.40
2023-02-11T09:44:26.101Z,16.90
2023-02-11T09:46:58.681Z,18.33
2023-02-11T09:49:42.971Z,17.40
2023-02-11T09:52:35.281Z,17.85
2023-02-11T09:55:25.062Z,16.02
2023-02-11T09:57:52.754Z,18.52
2023-02-11T10:00:33.099Z,15.18
2023-02-11T10:03:19.262Z,17.63
2023-02-11T10:05:56.899Z,16.33
2023-02-11T10:09:04.185Z,15.52
2023-02-11T10:11:53.381Z,13.38
2023-02-11T10:14:40.365Z,15.38
2023-02-11T10:17:38.580Z,14.90
2023-02-11T10:20:35.023Z,16.77
2023-02-11T10:23:29.179Z,14.35
2023-02-11T10:25:59.064Z,15.60
2023-02-11T10:28:34.060Z,16.55
2023-02-11T10:31:11.955Z,14.15
2023-02-11T10:33:54.400Z,13.60
2023-02-11T10:36:27.330Z,10.35
2023-02-11T10:41:36.537Z,10.55
2023-02-11T10:44:07.162Z,9.82
2023-02-11T10:46:40.326Z,9.68
2023-02-11T10:49:08.105Z,9.10
2023-02-11T10:51:35.786Z,8.35
2023-02-11T10:54:13.854Z,8.25
2023-02-11T10:56:46.542Z,8.27
2023-02-11T10:59:31.461Z,9.50
2023-02-11T11:02:06.142Z,7.43
2023-02-11T11:04:34.291Z,9.20
2023-02-11T11:07:29.152Z,10.85
2023-02-11T11:10:18.840Z,10.80
2023-02-11T11:12:46.435Z,7.78
2023-02-11T11:15:26.942Z,7.93
2023-02-11T11:18:23.299Z,8.48
2023-02-11T11:21:01.030Z,9.48
2023-02-11T11:23:30.578Z,6.35
2023-02-11T11:26:17.018Z,6.65
2023-02-11T11:28:50.727Z,7.50
2023-02-11T11:31:45.662Z,6.68
2023-02-11T11:34:32.825Z,8.23
2023-02-11T11:37:09.772Z,8.52
2023-02-11T11:39:37.574Z,9.18
2023-02-11T11:42:24.148Z,8.57
2023-02-11T11:45:01.012Z,6.78
2023-02-11T11:48:12.802Z,7.70
2023-02-11T11:50:47.516Z,8.10
2023-02-11T11:53:27.261Z,8.40
2023-02-11T11:56:04.001Z,13.45
2023-02-11T11:58:33.101Z,10.18
2023-02-11T12:01:25.757Z,13.52
2023-02-11T12:04:11.953Z,13.60
2023-02-11T12:07:05.020Z,11.88
2023-02-11T12:10:04.712Z,12.82
2023-02-11T12:12:50.572Z,13.77
2023-02-11T12:15:30.633Z,13.32
2023-02-11T12:18:10.640Z,20.05
2023-02-11T12:20:53.835Z,17.65
2023-02-11T12:26:06.358Z,15.10
2023-02-11T12:28:57.101Z,18.05
2023-02-11T12:31:49.416Z,14.73
2023-02-11T12:34:42.474Z,15.52
2023-02-11T12:37:38.093Z,16.50
2023-02-11T12:40:36.832Z,13.27
2023-02-11T12:43:25.084Z,13.95
2023-02-11T12:46:11.715Z,16.75
2023-02-11T12:48:39.632Z,17.42
2023-02-11T12:51:38.443Z,18.48
2023-02-11T12:54:40.327Z,11.82
2023-02-11T12:57:26.614Z,29.55
2023-02-11T12:59:59.452Z,14.85
2023-02-11T13:05:27.695Z,14.90
2023-02-11T13:08:22.238Z,14.60
2023-02-11T13:11:00.111Z,11.80
2023-02-11T13:13:37.423Z,14.82
2023-02-11T13:16:12.676Z,10.73
2023-02-11T13:18:45.529Z,13.75
2023-02-11T13:21:16.516Z,11.48
2023-02-11T13:24:07.612Z,17.10
2023-02-11T13:26:50.732Z,16.10
2023-02-11T13:29:33.580Z,13.00
2023-02-11T13:32:16.337Z,12.80
2023-02-11T13:34:44.468Z,23.25
2023-02-11T13:37:23.222Z,14.30
2023-02-11T13:39:59.633Z,13.35
2023-02-11T13:42:29.121Z,15.43
2023-02-11T13:44:57.954Z,16.88
2023-02-11T13:47:31.115Z,13.00
2023-02-11T13:50:01.370Z,15.32
2023-02-11T13:52:32.834Z,10.55
2023-02-11T13:55:23.520Z,10.23
2023-02-11T13:58:06.549Z,11.68
2023-02-11T14:00:34.909Z,11.10
2023-02-11T14:03:30.386Z,11.00
2023-02-11T14:06:29.279Z,12.88
2023-02-11T14:09:10.167Z,10.35
2023-02-11T14:11:41.742Z,9.88
2023-02-11T14:14:21.898Z,11.65
2023-02-11T14:17:01.552Z,14.32
2023-02-11T14:19:38.946Z,13.02
2023-02-11T14:22:13.814Z,11.80
2023-02-11T14:24:48.589Z,12.68
2023-02-11T14:27:38.903Z,14.55
2023-02-11T14:30:08.044Z,11.73
2023-02-11T14:32:46.396Z,14.35
2023-02-11T14:36:00.728Z,10.35
2023-02-11T14:38:54.023Z,10.30
2023-02-11T14:41:26.348Z,12.10
2023-02-11T14:44:00.773Z,10.77
2023-02-11T14:46:35.749Z,11.73
2023-02-11T14:49:05.552Z,10.70
2023-02-11T14:51:41.437Z,10.95
2023-02-11T14:54:19.669Z,12.32
2023-02-11T14:56:48.323Z,10.48
2023-02-11T14:59:19.448Z,11.48
2023-02-11T15:01:55.631Z,47.60
2023-02-11T15:04:30.137Z,14.38
2023-02-11T15:07:03.676Z,14.75
2023-02-11T15:09:46.164Z,14.38
2023-02-11T15:12:23.827Z,12.35
2023-02-11T15:14:55.899Z,13.45
2023-02-11T15:17:30.741Z,11.88
2023-02-11T15:20:02.626Z,12.70
2023-02-11T15:22:36.886Z,11.45
2023-02-11T15:25:14.104Z,11.95
2023-02-11T15:27:51.308Z,13.20
2023-02-11T15:30:22.452Z,13.57
2023-02-11T15:33:00.742Z,13.27
2023-02-11T15:35:35.602Z,12.68
2023-02-11T15:38:05.236Z,13.43
2023-02-11T15:40:37.764Z,13.57
2023-02-11T15:43:09.815Z,16.33
2023-02-11T15:45:59.491Z,13.77
2023-02-11T15:48:34.093Z,13.88
2023-02-11T15:51:15.575Z,13.23
2023-02-11T15:53:45.138Z,13.02
2023-02-11T15:56:24.298Z,16.85
2023-02-11T15:58:55.178Z,14.00
2023-02-11T16:01:40.382Z,15.60
2023-02-11T16:04:17.802Z,16.08
2023-02-11T16:06:49.266Z,21.73
2023-02-11T16:09:18.235Z,19.88
2023-02-11T16:11:53.769Z,16.65
2023-02-11T16:14:30.004Z,14.60
2023-02-11T16:17:25.367Z,15.88
2023-02-11T16:19:56.590Z,17.67
2023-02-11T16:22:36.596Z,15.32
2023-02-11T16:25:05.889Z,16.23
2023-02-11T16:27:42.864Z,19.17
2023-02-11T16:30:38.185Z,17.38
2023-02-11T16:33:07.874Z,35.85
2023-02-11T16:35:38.330Z,19.58
2023-02-11T16:38:07.070Z,30.98
2023-02-11T16:40:36.354Z,28.63
2023-02-11T16:43:05.061Z,16.95
2023-02-11T16:45:39.940Z,17.95
2023-02-11T16:48:10.289Z,17.77
2023-02-11T16:50:41.086Z,18.25
2023-02-11T16:53:14.580Z,17.63
2023-02-11T16:55:44.107Z,16.52
2023-02-11T16:58:12.093Z,15.55
2023-02-11T17:00:41.150Z,20.23
2023-02-11T17:03:13.572Z,18.70
2023-02-11T17:05:54.667Z,22.05
2023-02-11T17:08:24.154Z,22.42
2023-02-11T17:10:53.357Z,21.10
2023-02-11T17:13:22.111Z,16.40
2023-02-11T17:15:51.439Z,18.83
2023-02-11T17:18:20.502Z,16.00
2023-02-11T17:20:49.760Z,15.52
2023-02-11T17:23:18.102Z,15.75
2023-02-11T17:25:46.825Z,15.45
2023-02-11T17:28:16.964Z,20.92
2023-02-11T17:30:45.712Z,19.23
2023-02-11T17:33:14.491Z,18.17
2023-02-11T17:35:43.474Z,21.27
2023-02-11T17:38:11.532Z,28.58
2023-02-11T17:40:40.938Z,24.70
2023-02-11T17:43:09.861Z,11.93
2023-02-11T17:45:42.181Z,13.15
2023-02-11T17:48:10.357Z,12.70
2023-02-11T17:50:38.434Z,16.98
2023-02-11T17:53:07.367Z,16.67
2023-02-11T17:55:38.723Z,17.92
2023-02-11T17:58:07.427Z,15.63
2023-02-11T18:00:35.742Z,12.80
2023-02-11T18:03:04.814Z,12.18
2023-02-11T18:05:37.462Z,13.48
2023-02-11T18:10:36.940Z,12.65
2023-02-11T18:13:05.878Z,11.10
2023-02-11T18:15:35.218Z,11.55
2023-02-11T18:18:05.391Z,12.73
2023-02-11T18:20:34.098Z,12.15
2023-02-11T18:23:02.883Z,14.90
2023-02-11T18:25:36.313Z,12.38
2023-02-11T18:28:06.685Z,11.88
2023-02-11T18:30:37.094Z,11.10
2023-02-11T18:33:08.966Z,11.90
2023-02-11T18:35:42.429Z,10.25
2023-02-11T18:38:11.177Z,10.63
2023-02-11T18:40:41.235Z,13.00
2023-02-11T18:43:10.128Z,11.23
2023-02-11T18:45:44.202Z,11.63
2023-02-11T18:48:12.895Z,11.75
2023-02-11T18:50:42.472Z,12.00
2023-02-11T18:53:12.491Z,10.88
2023-02-11T18:55:46.864Z,14.25
2023-02-11T18:58:15.992Z,12.05
2023-02-11T19:00:47.681Z,13.90
2023-02-11T19:03:16.760Z,13.38
2023-02-11T19:05:50.017Z,13.13
2023-02-11T19:08:19.986Z,13.18
2023-02-11T19:11:04.407Z,11.57
2023-02-11T19:13:32.993Z,11.65
2023-02-11T19:16:05.416Z,11.82
2023-02-11T19:18:34.493Z,12.88
2023-02-11T19:21:13.319Z,14.18
2023-02-11T19:23:43.153Z,12.55
2023-02-11T19:26:12.213Z,15.50
2023-02-11T19:28:40.716Z,13.93
2023-02-11T19:31:10.588Z,12.75
2023-02-11T19:33:40.980Z,12.68
2023-02-11T19:36:16.404Z,12.32
2023-02-11T19:38:45.813Z,9.82
2023-02-11T19:41:19.780Z,11.43
2023-02-11T19:43:54.583Z,9.60
2023-02-11T19:46:28.450Z,10.63
2023-02-11T19:48:57.383Z,12.32
2023-02-11T19:51:26.312Z,11.18
2023-02-11T19:53:55.273Z,9.98
2023-02-11T19:56:27.988Z,9.05
2023-02-11T19:58:59.128Z,12.55
2023-02-11T20:01:27.649Z,12.98
2023-02-11T20:04:00.458Z,10.40
2023-02-11T20:09:17.521Z,12.60
2023-02-11T20:11:47.571Z,9.43
2023-02-11T20:14:16.401Z,11.30
2023-02-11T20:16:48.675Z,11.00
2023-02-11T20:19:21.938Z,10.68
2023-02-11T20:21:53.808Z,10.77
2023-02-11T20:24:23.333Z,12.33
2023-02-11T20:26:56.282Z,10.98
2023-02-11T20:29:26.077Z,11.02
2023-02-11T20:32:02.292Z,9.77
2023-02-11T20:34:31.529Z,11.15
2023-02-11T20:37:00.195Z,13.25
2023-02-11T20:39:29.117Z,12.98
2023-02-11T20:41:58.498Z,17.23
2023-02-11T20:44:27.443Z,10.93
2023-02-11T20:46:58.395Z,11.35
2023-02-11T20:49:28.892Z,11.50
2023-02-11T20:51:59.011Z,12.23
2023-02-11T20:54:29.157Z,10.75
2023-02-11T20:56:58.907Z,11.88
2023-02-11T20:59:28.287Z,10.10
2023-02-11T21:01:58.245Z,9.55
2023-02-11T21:04:30.911Z,11.07
2023-02-11T21:07:06.216Z,13.70
2023-02-11T21:09:35.641Z,12.05
2023-02-11T21:12:04.133Z,16.02
2023-02-11T21:14:32.998Z,12.45
2023-02-11T21:17:01.609Z,10.35
2023-02-11T21:19:30.081Z,8.40
2023-02-11T21:22:01.231Z,10.25
2023-02-11T21:24:31.413Z,12.63
2023-02-11T21:27:00.131Z,11.30
2023-02-11T21:29:29.290Z,13.60
2023-02-11T21:31:58.144Z,12.52
2023-02-11T21:34:31.837Z,15.68
2023-02-11T21:37:00.641Z,10.05
2023-02-11T21:39:33.872Z,13.38
2023-02-11T21:42:03.418Z,14.07
2023-02-11T21:44:35.436Z,15.30
2023-02-11T21:47:06.426Z,11.68
2023-02-11T21:49:35.644Z,12.05
2023-02-11T21:52:04.070Z,11.35
2023-02-11T21:54:33.129Z,11.60
2023-02-11T21:57:03.502Z,15.25
2023-02-11T21:59:32.507Z,15.55
2023-02-11T22:02:01.190Z,11.68
2023-02-11T22:04:29.182Z,11.48
2023-02-11T22:06:57.080Z,15.18
2023-02-11T22:09:25.313Z,11.40
2023-02-11T22:11:54.132Z,9.18
2023-02-11T22:14:22.369Z,11.63
2023-02-11T22:16:50.805Z,9.93
2023-02-11T22:19:19.010Z,11.35
2023-02-11T22:21:47.072Z,11.55
2023-02-11T22:24:14.944Z,12.15
2023-02-11T22:26:42.656Z,10.30
2023-02-11T22:29:11.172Z,12.48
2023-02-11T22:31:39.539Z,6.78
2023-02-11T22:34:07.539Z,8.85
2023-02-11T22:36:38.005Z,12.10
2023-02-11T22:39:08.664Z,11.30
2023-02-11T22:41:38.373Z,10.93
2023-02-11T22:44:06.414Z,8.75
2023-02-11T22:46:34.824Z,12.52
2023-02-11T22:49:02.480Z,8.77
2023-02-11T22:51:30.783Z,16.40
2023-02-11T22:54:01.649Z,11.65
2023-02-11T22:56:30.946Z,10.60
2023-02-11T22:59:03.654Z,9.18
2023-02-11T23:01:32.081Z,10.18
2023-02-11T23:04:01.225Z,10.43
2023-02-11T23:06:28.875Z,10.93
2023-02-11T23:08:56.636Z,8.90
2023-02-11T23:11:27.147Z,7.43
2023-02-11T23:13:55.095Z,9.30
2023-02-11T23:16:31.945Z,7.78
2023-02-11T23:19:02.171Z,10.07
2023-02-11T23:21:32.523Z,9.98
2023-02-11T23:24:02.865Z,9.73
2023-02-11T23:26:30.958Z,10.02
2023-02-11T23:29:17.312Z,10.52
2023-02-11T23:31:46.611Z,9.25
2023-02-11T23:34:20.412Z,8.18
2023-02-11T23:36:48.087Z,9.05
2023-02-11T23:39:17.176Z,10.65
2023-02-11T23:41:45.571Z,10.40
2023-02-11T23:44:13.193Z,8.27
2023-02-11T23:46:40.879Z,10.63
2023-02-11T23:49:08.556Z,8.25
2023-02-11T23:51:36.181Z,9.35
2023-02-11T23:54:03.913Z,10.35
2023-02-11T23:56:31.807Z,10.40
2023-02-11T23:58:59.536Z,11.05
